createdAt,value
2024-04-21T00:04:43.408Z,15.52
2024-04-21T00:09:46.366Z,15.50
2024-04-21T00:14:51.960Z,15.46
2024-04-21T00:19:58.522Z,15.43
2024-04-21T00:25:09.196Z,15.39
2024-04-21T00:30:23.323Z,15.36
2024-04-21T00:35:26.977Z,15.29
2024-04-21T00:40:29.668Z,15.23
2024-04-21T00:45:37.515Z,15.18
2024-04-21T00:50:47.514Z,15.12
2024-04-21T00:56:02.363Z,15.06
2024-04-21T01:05:15.958Z,14.92
2024-04-21T01:10:27.451Z,14.86
2024-04-21T01:15:29.798Z,14.81
2024-04-21T01:20:39.774Z,14.73
2024-04-21T01:25:42.304Z,14.69
2024-04-21T01:30:48.222Z,14.66
2024-04-21T01:35:50.890Z,14.63
2024-04-21T01:41:01.161Z,14.59
2024-04-21T01:46:09.131Z,14.61
2024-04-21T01:51:14.952Z,14.67
2024-04-21T01:56:18.665Z,14.70
2024-04-21T02:01:21.579Z,14.73
2024-04-21T02:06:24.343Z,14.73
2024-04-21T02:11:32.761Z,14.73
2024-04-21T02:16:39.906Z,14.72
2024-04-21T02:21:49.478Z,14.73
2024-04-21T02:26:56.940Z,14.73
2024-04-21T02:32:35.777Z,14.72
2024-04-21T02:41:03.773Z,14.72
2024-04-21T02:46:19.811Z,14.71
2024-04-21T02:51:36.009Z,14.68
2024-04-21T02:56:51.773Z,14.69
2024-04-21T03:01:55.554Z,14.66
2024-04-21T03:07:06.060Z,14.65
2024-04-21T03:12:09.270Z,14.64
2024-04-21T03:17:14.819Z,14.62
2024-04-21T03:22:55.223Z,14.58
2024-04-21T03:28:01.783Z,14.60
2024-04-21T03:33:14.954Z,14.64
2024-04-21T03:38:26.737Z,14.63
2024-04-21T03:43:36.545Z,14.66
2024-04-21T03:48:40.818Z,14.66
2024-04-21T03:54:37.995Z,14.64
2024-04-21T03:59:49.624Z,14.62
2024-04-21T04:10:39.969Z,14.61
2024-04-21T04:15:48.979Z,14.60
2024-04-21T04:20:58.698Z,14.56
2024-04-21T04:26:06.368Z,14.54
2024-04-21T04:31:17.000Z,14.49
2024-04-21T04:36:22.223Z,14.45
2024-04-21T04:41:34.370Z,14.41
2024-04-21T04:46:43.258Z,14.38
2024-04-21T04:51:58.655Z,14.37
2024-04-21T04:57:12.671Z,14.37
2024-04-21T05:02:16.211Z,14.30
2024-04-21T05:07:22.984Z,14.26
2024-04-21T05:12:32.191Z,14.21
2024-04-21T05:17:40.827Z,14.25
2024-04-21T05:22:47.046Z,14.29
2024-04-21T05:27:53.948Z,14.33
2024-04-21T05:38:41.485Z,14.45
2024-04-21T05:44:30.029Z,14.49
2024-04-21T05:50:04.794Z,14.44
2024-04-21T05:55:31.842Z,14.36
2024-04-21T06:00:46.928Z,14.34
2024-04-21T06:05:57.724Z,14.37
2024-04-21T06:17:21.652Z,14.35
2024-04-21T06:22:28.792Z,14.36
2024-04-21T06:32:55.268Z,14.31
2024-04-21T06:38:03.222Z,14.31
2024-04-21T06:43:08.339Z,14.29
2024-04-21T06:48:20.081Z,14.30
2024-04-21T06:53:35.669Z,14.30
2024-04-21T06:59:23.446Z,14.31
2024-04-21T07:04:37.964Z,14.37
2024-04-21T07:09:50.724Z,14.48
2024-04-21T07:14:56.979Z,14.60
2024-04-21T07:20:09.335Z,14.68
2024-04-21T07:25:24.882Z,14.72
2024-04-21T07:30:35.333Z,14.80
2024-04-21T07:35:42.001Z,14.88
2024-04-21T07:40:45.333Z,14.98
2024-04-21T07:45:51.581Z,15.02
2024-04-21T07:51:00.931Z,15.03
2024-04-21T07:56:08.544Z,15.09
2024-04-21T08:01:19.238Z,15.20
2024-04-21T08:06:34.439Z,15.24
2024-04-21T08:11:49.504Z,15.24
2024-04-21T08:22:44.490Z,15.33
2024-04-21T08:27:58.579Z,15.41
2024-04-21T08:33:08.977Z,15.51
2024-04-21T08:38:19.950Z,15.60
2024-04-21T08:43:26.921Z,15.72
2024-04-21T08:48:44.470Z,15.85
2024-04-21T08:54:25.123Z,15.99
2024-04-21T08:59:47.246Z,16.06
2024-04-21T09:05:06.761Z,16.08
2024-04-21T09:10:22.744Z,16.09
2024-04-21T09:15:27.146Z,16.15
2024-04-21T09:20:44.909Z,16.03
2024-04-21T09:25:52.928Z,15.89
2024-04-21T09:31:08.314Z,15.87
2024-04-21T09:36:29.839Z,15.77
2024-04-21T09:41:43.720Z,15.72
2024-04-21T09:47:02.825Z,15.77
2024-04-21T09:52:25.683Z,15.87
2024-04-21T09:57:44.012Z,15.89
2024-04-21T10:02:58.330Z,15.95
2024-04-21T10:08:06.060Z,16.06
2024-04-21T10:13:16.747Z,16.07
2024-04-21T10:18:26.738Z,16.12
2024-04-21T10:23:44.258Z,16.27
2024-04-21T10:28:46.754Z,16.34
2024-04-21T10:34:13.731Z,16.47
2024-04-21T10:39:49.138Z,16.66
2024-04-21T10:44:58.898Z,16.60
2024-04-21T10:50:16.430Z,16.66
2024-04-21T11:00:51.897Z,17.35
2024-04-21T11:06:10.366Z,17.35
2024-04-21T11:11:27.616Z,17.64
2024-04-21T11:16:38.044Z,17.73
2024-04-21T11:21:50.105Z,17.52
2024-04-21T11:26:58.629Z,17.68
2024-04-21T11:32:01.588Z,17.74
2024-04-21T11:37:04.510Z,17.80
2024-04-21T11:42:15.926Z,17.65
2024-04-21T11:47:33.215Z,17.50
2024-04-21T11:52:46.085Z,17.48
2024-04-21T11:57:51.921Z,17.61
2024-04-21T12:03:00.259Z,17.64
2024-04-21T12:08:02.740Z,17.54
2024-04-21T12:13:05.660Z,17.47
2024-04-21T12:18:23.092Z,17.39
2024-04-21T12:23:28.349Z,17.17
2024-04-21T12:28:34.231Z,17.05
2024-04-21T12:33:48.893Z,17.05
2024-04-21T12:38:55.314Z,17.19
2024-04-21T12:44:24.584Z,17.16
2024-04-21T12:49:36.480Z,17.19
2024-04-21T12:54:51.129Z,16.97
2024-04-21T13:00:00.859Z,17.08
2024-04-21T13:05:14.665Z,17.02
2024-04-21T13:10:26.909Z,16.91
2024-04-21T13:15:46.995Z,17.00
2024-04-21T13:20:54.695Z,16.94
2024-04-21T13:31:41.231Z,16.82
2024-04-21T13:36:50.140Z,16.79
2024-04-21T13:42:05.721Z,16.86
2024-04-21T13:47:09.610Z,16.99
2024-04-21T13:52:20.461Z,17.09
2024-04-21T13:57:33.671Z,16.98
2024-04-21T14:02:57.418Z,16.92
2024-04-21T14:08:05.508Z,16.74
2024-04-21T14:13:28.019Z,16.63
2024-04-21T14:18:41.827Z,16.44
2024-04-21T14:24:00.840Z,16.22
2024-04-21T14:29:14.775Z,16.27
2024-04-21T14:34:47.743Z,16.21
2024-04-21T14:39:56.542Z,16.16
2024-04-21T14:45:15.081Z,16.33
2024-04-21T15:01:56.581Z,16.10
2024-04-21T15:07:01.443Z,16.04
2024-04-21T15:12:15.815Z,16.13
2024-04-21T15:17:35.325Z,16.13
2024-04-21T15:22:40.945Z,16.08
2024-04-21T15:27:48.586Z,15.91
2024-04-21T15:32:55.408Z,15.85
2024-04-21T15:38:02.323Z,15.88
2024-04-21T15:43:14.059Z,15.89
2024-04-21T15:48:22.393Z,15.82
2024-04-21T15:53:31.706Z,15.83
2024-04-21T15:58:43.056Z,15.87
2024-04-21T16:03:49.691Z,15.78
2024-04-21T16:08:58.715Z,15.78
2024-04-21T16:14:07.778Z,15.67
2024-04-21T16:19:26.200Z,15.64
2024-04-21T16:24:37.635Z,15.59
2024-04-21T16:35:47.664Z,15.65
2024-04-21T16:41:08.165Z,15.64
2024-04-21T16:46:19.703Z,15.68
2024-04-21T16:51:28.107Z,15.70
2024-04-21T16:57:00.443Z,15.75
2024-04-21T17:02:19.466Z,15.73
2024-04-21T17:07:39.289Z,15.65
2024-04-21T17:12:47.599Z,15.63
2024-04-21T17:18:00.918Z,15.64
2024-04-21T17:23:09.060Z,15.72
2024-04-21T17:28:43.435Z,15.67
2024-04-21T17:34:02.706Z,15.73
2024-04-21T17:39:21.173Z,15.73
2024-04-21T17:44:29.643Z,15.69
2024-04-21T17:49:35.735Z,15.64
2024-04-21T17:54:48.640Z,15.56
2024-04-21T18:00:03.610Z,15.57
2024-04-21T18:05:22.729Z,15.56
2024-04-21T18:10:30.854Z,15.47
2024-04-21T18:15:38.543Z,15.46
2024-04-21T18:20:46.940Z,15.42
2024-04-21T18:25:52.314Z,15.38
2024-04-21T18:31:03.455Z,15.33
2024-04-21T18:36:09.452Z,15.29
2024-04-21T18:41:19.890Z,15.28
2024-04-21T18:46:34.154Z,15.19
2024-04-21T18:51:54.804Z,15.15
2024-04-21T18:57:07.531Z,15.18
2024-04-21T19:02:16.636Z,15.18
2024-04-21T19:07:23.332Z,15.17
2024-04-21T19:12:35.046Z,15.18
2024-04-21T19:17:50.272Z,15.16
2024-04-21T19:22:58.938Z,15.18
2024-04-21T19:28:09.660Z,15.19
2024-04-21T19:33:18.201Z,15.21
2024-04-21T19:38:25.902Z,15.22
2024-04-21T19:43:37.193Z,15.20
2024-04-21T19:48:50.689Z,15.23
2024-04-21T19:53:58.475Z,15.29
2024-04-21T19:59:06.332Z,15.24
2024-04-21T20:04:17.653Z,15.23
2024-04-21T20:09:29.189Z,15.18
2024-04-21T20:14:57.640Z,15.17
2024-04-21T20:20:24.405Z,15.13
2024-04-21T20:25:49.782Z,15.13
2024-04-21T20:31:17.624Z,15.16
2024-04-21T20:36:35.854Z,15.22
2024-04-21T20:41:55.229Z,15.28
2024-04-21T20:47:09.844Z,15.29
2024-04-21T20:52:45.701Z,15.32
2024-04-21T20:57:53.045Z,15.31
2024-04-21T21:03:03.418Z,15.26
2024-04-21T21:08:13.654Z,15.22
2024-04-21T21:13:22.139Z,15.17
2024-04-21T21:18:29.812Z,15.17
2024-04-21T21:23:34.738Z,15.19
2024-04-21T21:29:02.199Z,15.23
2024-04-21T21:34:38.312Z,15.21
2024-04-21T21:45:06.040Z,15.20
2024-04-21T21:56:47.605Z,15.19
2024-04-21T22:01:55.792Z,15.13
2024-04-21T22:07:07.543Z,15.08
2024-04-21T22:12:15.071Z,15.02
2024-04-21T22:17:19.325Z,15.00
2024-04-21T22:22:29.017Z,14.99
2024-04-21T22:27:34.632Z,15.03
2024-04-21T22:32:59.414Z,15.05
2024-04-21T22:43:45.718Z,15.08
2024-04-21T22:54:18.582Z,15.12
2024-04-21T22:59:24.719Z,15.10
2024-04-21T23:04:29.364Z,15.06
2024-04-21T23:09:43.728Z,15.06
2024-04-21T23:14:59.255Z,15.03
2024-04-21T23:20:10.931Z,15.03
2024-04-21T23:30:34.109Z,15.03
2024-04-21T23:35:43.449Z,15.07
2024-04-21T23:41:08.852Z,15.09
2024-04-21T23:46:18.926Z,15.09
2024-04-21T23:51:24.638Z,15.10
